Time;durP1;ratioP1;P1;durP2;ratioP2;P2;SDS_P1;SDS_P2;PMS_P1;PMS_P2;Temp;Humidity;BMP_temperature;BMP_pressure;BME280_temperature;BME280_humidity;BME280_pressure;Samples;Min_cycle;Max_cycle;Signal;HPM_P1;HPM_P2
2022/03/08 00:00:19;;;;;;;22.80;9.40;;;;;-1.80;96907.00;;;;8394298;28;20657;-70
2022/03/08 00:04:54;;;;;;;19.30;8.17;;;;;-1.80;96916.00;;;;8394451;28;20231;-70
2022/03/08 00:08:57;;;;;;;18.20;9.30;;;;;-1.80;96925.00;;;;8394105;28;20577;-69
2022/03/08 00:13:00;;;;;;;20.03;9.77;;;;;-1.80;96921.00;;;;8393421;28;20706;-68
2022/03/08 00:17:37;;;;;;;17.67;9.70;;;;;-1.80;96913.00;;;;8394034;28;20258;-68
2022/03/08 00:21:41;;;;;;;22.07;10.13;;;;;-1.70;96921.00;;;;8393888;28;20208;-69
2022/03/08 00:25:44;;;;;;;19.43;9.40;;;;;-1.60;96918.00;;;;8394200;28;20740;-68
2022/03/08 00:30:19;;;;;;;15.13;8.50;;;;;-1.60;96909.00;;;;8394514;28;20288;-68
2022/03/08 00:34:22;;;;;;;16.63;8.33;;;;;-1.40;96912.00;;;;8393842;28;20690;-68
2022/03/08 00:38:26;;;;;;;12.17;7.00;;;;;-1.20;96906.00;;;;8394122;28;20494;-68
2022/03/08 00:43:00;;;;;;;15.63;7.47;;;;;-0.90;96898.00;;;;8394059;28;20216;-68
2022/03/08 00:47:03;;;;;;;12.23;7.30;;;;;-0.80;96890.00;;;;8394199;28;20274;-68
2022/03/08 00:51:06;;;;;;;15.50;8.30;;;;;-0.90;96898.00;;;;8393581;28;20265;-68
2022/03/08 00:55:45;;;;;;;13.60;8.10;;;;;-1.10;96892.00;;;;8400081;28;20224;-72
2022/03/08 00:59:48;;;;;;;13.70;7.57;;;;;-1.10;96882.00;;;;8399387;28;20216;-70
2022/03/08 01:03:51;;;;;;;14.87;7.17;;;;;-1.10;96885.00;;;;8399471;28;20265;-70
2022/03/08 01:07:54;;;;;;;16.73;7.80;;;;;-1.30;96875.00;;;;8398647;28;20220;-70
2022/03/08 01:12:32;;;;;;;19.83;8.67;;;;;-1.60;96880.00;;;;8399744;28;20250;-70
2022/03/08 01:16:35;;;;;;;21.97;9.73;;;;;-1.80;96881.00;;;;8398438;28;20228;-70
2022/03/08 01:20:38;;;;;;;19.93;8.63;;;;;-2.00;96875.00;;;;8398934;28;20216;-70
2022/03/08 01:24:41;;;;;;;18.00;8.87;;;;;-2.30;96858.00;;;;8399092;28;20273;-69
2022/03/08 01:28:46;;;;;;;16.30;8.07;;;;;-2.60;96852.00;;;;8398828;28;20227;-69
2022/03/08 01:33:23;;;;;;;22.73;9.60;;;;;-3.00;96851.00;;;;8398290;28;20215;-69
2022/03/08 01:37:26;;;;;;;17.17;9.10;;;;;-3.10;96843.00;;;;8398334;28;20269;-70
2022/03/08 01:42:07;;;;;;;15.27;8.63;;;;;-3.30;96838.00;;;;8397612;28;20608;-70
2022/03/08 01:46:12;;;;;;;16.93;9.30;;;;;-3.40;96832.00;;;;8398021;28;20687;-70
2022/03/08 01:50:15;;;;;;;14.57;8.53;;;;;-3.40;96810.00;;;;8397855;28;20227;-70
2022/03/08 01:54:18;;;;;;;21.30;8.87;;;;;-3.40;96821.00;;;;8398388;28;20592;-70
2022/03/08 01:58:21;;;;;;;17.10;8.47;;;;;-3.40;96818.00;;;;8397735;28;20568;-69
2022/03/08 02:02:58;;;;;;;18.53;9.33;;;;;-3.40;96811.00;;;;8397972;28;20236;-69
2022/03/08 02:07:04;;;;;;;21.70;9.30;;;;;-3.50;96811.00;;;;8396970;28;20295;-69
2022/03/08 02:11:38;;;;;;;18.67;8.43;;;;;-3.50;96804.00;;;;8397335;28;20215;-69
2022/03/08 02:15:41;;;;;;;22.63;9.57;;;;;-3.50;96796.00;;;;8396323;28;20226;-69
2022/03/08 02:19:44;;;;;;;20.33;9.17;;;;;-3.50;96795.00;;;;8397458;28;20663;-69
2022/03/08 02:24:22;;;;;;;18.97;8.80;;;;;-3.60;96794.00;;;;8396737;28;20235;-69
2022/03/08 02:28:25;;;;;;;21.43;9.23;;;;;-3.70;96789.00;;;;8396372;28;20284;-69
2022/03/08 02:33:01;;;;;;;18.63;9.17;;;;;-3.80;96788.00;;;;8396433;28;20224;-68
2022/03/08 02:37:07;;;;;;;24.20;9.40;;;;;-3.90;96782.00;;;;8396480;28;20224;-69
2022/03/08 02:41:12;;;;;;;19.93;8.80;;;;;-3.90;96777.00;;;;8396013;28;20559;-68
2022/03/08 02:45:16;;;;;;;18.83;9.53;;;;;-4.00;96783.00;;;;8396378;28;20530;-68
2022/03/08 02:49:19;;;;;;;19.00;9.40;;;;;-4.10;96787.00;;;;8395690;28;20230;-68
2022/03/08 02:53:22;;;;;;;20.43;8.80;;;;;-4.20;96797.00;;;;8394904;28;20224;-67
2022/03/08 02:58:00;;;;;;;23.43;8.93;;;;;-4.40;96785.00;;;;8396053;28;20657;-68
2022/03/08 03:02:03;;;;;;;18.00;9.63;;;;;-4.50;96789.00;;;;8394179;22;20369;-68
2022/03/08 03:06:06;;;;;;;18.83;8.83;;;;;-4.60;96784.00;;;;8319793;28;20911;-68
2022/03/08 03:10:11;;;;;;;21.30;9.43;;;;;-4.70;96781.00;;;;8319662;28;20749;-68
2022/03/08 03:14:16;;;;;;;18.97;9.30;;;;;-4.70;96774.00;;;;8325116;28;20283;-69
2022/03/08 03:18:19;;;;;;;24.73;10.07;;;;;-4.70;96779.00;;;;8325994;28;20924;-68
2022/03/08 03:22:22;;;;;;;20.53;9.20;;;;;-4.70;96781.00;;;;8317946;28;20240;-70
2022/03/08 03:26:25;;;;;;;18.13;9.67;;;;;-4.90;96775.00;;;;8318806;28;20290;-69
2022/03/08 03:30:29;;;;;;;18.80;9.67;;;;;-5.00;96778.00;;;;8323837;28;20266;-69
2022/03/08 03:34:32;;;;;;;20.43;9.77;;;;;-5.00;96780.00;;;;8327416;28;20273;-69
2022/03/08 03:38:35;;;;;;;21.70;10.13;;;;;-5.00;96780.00;;;;8327117;28;20237;-70
2022/03/08 03:42:39;;;;;;;20.20;10.37;;;;;-5.10;96780.00;;;;8321520;28;20695;-69
2022/03/08 03:46:44;;;;;;;21.20;9.63;;;;;-5.10;96785.00;;;;8330695;28;20231;-69
2022/03/08 03:50:47;;;;;;;19.13;9.27;;;;;-5.10;96775.00;;;;8329217;28;20233;-69
2022/03/08 03:54:50;;;;;;;20.13;9.83;;;;;-5.20;96775.00;;;;8325760;28;20844;-69
2022/03/08 03:58:53;;;;;;;23.03;10.13;;;;;-5.20;96777.00;;;;8325041;28;20229;-69
2022/03/08 04:02:58;;;;;;;23.07;10.30;;;;;-5.00;96775.00;;;;8327648;28;20258;-69
2022/03/08 04:07:01;;;;;;;20.23;9.73;;;;;-4.90;96771.00;;;;8316674;28;20281;-69
2022/03/08 04:11:04;;;;;;;20.70;9.47;;;;;-4.90;96777.00;;;;8322043;28;20231;-69
2022/03/08 04:15:08;;;;;;;21.73;10.90;;;;;-4.90;96758.00;;;;8317294;28;20292;-68
2022/03/08 04:19:12;;;;;;;25.97;10.97;;;;;-4.90;96771.00;;;;8321254;28;20352;-69
2022/03/08 04:23:15;;;;;;;24.17;10.80;;;;;-4.90;96759.00;;;;8317727;28;20231;-71
2022/03/08 04:27:18;;;;;;;25.40;11.13;;;;;-5.00;96766.00;;;;8318851;28;20272;-69
2022/03/08 04:31:21;;;;;;;20.60;10.00;;;;;-5.00;96764.00;;;;8319725;28;20247;-71
2022/03/08 04:35:26;;;;;;;27.30;11.00;;;;;-5.10;96761.00;;;;8322884;28;20241;-68
2022/03/08 04:39:29;;;;;;;20.10;9.63;;;;;-5.10;96759.00;;;;8326987;28;20239;-69
2022/03/08 04:43:32;;;;;;;19.73;10.27;;;;;-5.10;96767.00;;;;8321702;28;20623;-69
2022/03/08 04:47:36;;;;;;;20.87;9.13;;;;;-5.10;96777.00;;;;8322789;28;20288;-67
2022/03/08 04:51:41;;;;;;;18.40;9.27;;;;;-5.10;96774.00;;;;8322426;28;20250;-69
2022/03/08 04:55:44;;;;;;;22.37;9.90;;;;;-5.20;96787.00;;;;8336022;28;20588;-68
2022/03/08 04:59:47;;;;;;;19.50;9.37;;;;;-5.20;96778.00;;;;8326172;28;20316;-71
2022/03/08 05:03:50;;;;;;;21.73;10.27;;;;;-5.30;96779.00;;;;8324380;28;20234;-64
2022/03/08 05:07:55;;;;;;;18.87;8.60;;;;;-5.30;96780.00;;;;8319748;28;20223;-64
2022/03/08 05:11:58;;;;;;;17.53;8.33;;;;;-5.40;96774.00;;;;8316529;28;20235;-65
2022/03/08 05:16:01;;;;;;;18.20;9.27;;;;;-5.60;96788.00;;;;8318622;28;20314;-63
2022/03/08 05:20:05;;;;;;;22.50;9.80;;;;;-5.60;96783.00;;;;8320513;28;20235;-67
2022/03/08 05:24:10;;;;;;;20.13;9.17;;;;;-5.60;96794.00;;;;8323911;28;20939;-66
2022/03/08 05:28:13;;;;;;;26.33;10.13;;;;;-5.60;96789.00;;;;8308159;28;20234;-65
2022/03/08 05:32:16;;;;;;;20.17;9.87;;;;;-5.50;96793.00;;;;8317724;28;20227;-64
2022/03/08 05:36:19;;;;;;;22.10;10.30;;;;;-5.40;96792.00;;;;8326370;28;20213;-64
2022/03/08 05:40:24;;;;;;;24.90;9.80;;;;;-5.40;96786.00;;;;8314288;28;20272;-64
2022/03/08 05:44:26;;;;;;;21.60;9.30;;;;;-5.40;96780.00;;;;8313399;28;20224;-66
2022/03/08 05:48:29;;;;;;;17.97;9.40;;;;;-5.40;96783.00;;;;8318343;28;20253;-65
2022/03/08 05:52:33;;;;;;;20.70;9.43;;;;;-5.40;96792.00;;;;8317343;28;20230;-64
2022/03/08 05:56:37;;;;;;;20.83;9.20;;;;;-5.40;96786.00;;;;8316954;28;20227;-64
2022/03/08 06:00:40;;;;;;;20.13;9.47;;;;;-5.40;96786.00;;;;8318583;28;20233;-65
2022/03/08 06:04:43;;;;;;;18.47;10.20;;;;;-5.30;96786.00;;;;8317244;28;20237;-66
2022/03/08 06:08:49;;;;;;;23.17;10.23;;;;;-5.30;96795.00;;;;8319957;28;20221;-64
2022/03/08 06:12:53;;;;;;;23.03;9.97;;;;;-5.20;96793.00;;;;8325141;28;20224;-67
2022/03/08 06:16:57;;;;;;;26.23;9.77;;;;;-5.20;96811.00;;;;8322093;28;20286;-68
2022/03/08 06:21:00;;;;;;;17.87;9.17;;;;;-5.20;96812.00;;;;8320757;28;20625;-64
2022/03/08 06:25:03;;;;;;;23.10;9.43;;;;;-5.10;96811.00;;;;8317636;28;20257;-65
2022/03/08 06:29:08;;;;;;;22.73;10.03;;;;;-5.00;96811.00;;;;8313709;28;20226;-65
2022/03/08 06:33:11;;;;;;;24.47;11.87;;;;;-5.10;96801.00;;;;8325641;28;20234;-66
2022/03/08 06:37:14;;;;;;;26.57;12.33;;;;;-5.00;96804.00;;;;8320443;28;20286;-64
2022/03/08 06:41:17;;;;;;;28.97;10.27;;;;;-4.90;96803.00;;;;8323742;28;20225;-66
2022/03/08 06:45:22;;;;;;;26.93;11.83;;;;;-4.70;96811.00;;;;8323295;28;20228;-69
2022/03/08 06:49:25;;;;;;;23.80;10.67;;;;;-4.60;96804.00;;;;8318523;28;20763;-64
2022/03/08 06:53:27;;;;;;;20.20;10.17;;;;;-4.50;96804.00;;;;8326080;28;20231;-65
2022/03/08 06:57:30;;;;;;;24.63;10.50;;;;;-4.30;96810.00;;;;8319722;28;20318;-63
2022/03/08 07:01:35;;;;;;;27.17;10.67;;;;;-4.20;96820.00;;;;8317494;28;20277;-66
2022/03/08 07:05:38;;;;;;;32.67;10.40;;;;;-4.00;96813.00;;;;8324157;28;20229;-65
2022/03/08 07:09:41;;;;;;;22.07;10.57;;;;;-3.80;96825.00;;;;8323835;28;20232;-64
2022/03/08 07:13:44;;;;;;;31.53;12.60;;;;;-3.60;96823.00;;;;8318298;28;20277;-67
2022/03/08 07:17:49;;;;;;;23.40;11.30;;;;;-3.20;96830.00;;;;8320252;28;20228;-67
2022/03/08 07:21:52;;;;;;;23.43;11.93;;;;;-2.80;96836.00;;;;8319930;28;20543;-68
2022/03/08 07:25:55;;;;;;;27.23;12.30;;;;;-2.40;96830.00;;;;8320803;28;20225;-66
2022/03/08 07:29:58;;;;;;;21.17;11.37;;;;;-2.10;96831.00;;;;8317309;28;20294;-65
2022/03/08 07:34:02;;;;;;;28.47;12.57;;;;;-1.70;96832.00;;;;8324252;28;20225;-66
2022/03/08 07:38:06;;;;;;;23.13;10.33;;;;;-1.30;96837.00;;;;8318431;28;20307;-64
2022/03/08 07:42:09;;;;;;;19.90;11.50;;;;;-0.90;96831.00;;;;8317999;28;20229;-65
2022/03/08 07:46:14;;;;;;;19.53;10.67;;;;;-0.60;96825.00;;;;8315549;28;20655;-66
2022/03/08 07:50:18;;;;;;;16.87;7.97;;;;;-0.30;96841.00;;;;8314719;28;20225;-66
2022/03/08 07:54:23;;;;;;;22.47;9.80;;;;;0.00;96849.00;;;;8315092;28;20629;-65
2022/03/08 07:58:26;;;;;;;17.93;9.40;;;;;0.30;96853.00;;;;8329430;28;20229;-66
2022/03/08 08:02:29;;;;;;;20.70;9.33;;;;;0.50;96849.00;;;;8327318;28;20613;-68
2022/03/08 08:06:34;;;;;;;22.80;10.03;;;;;0.70;96847.00;;;;8339583;28;20225;-67
2022/03/08 08:10:37;;;;;;;19.63;9.50;;;;;1.00;96851.00;;;;8338512;28;20632;-66
2022/03/08 08:14:40;;;;;;;18.13;8.73;;;;;1.20;96843.00;;;;8334975;28;20308;-69
2022/03/08 08:18:43;;;;;;;15.17;8.67;;;;;1.40;96842.00;;;;8335879;28;20230;-64
2022/03/08 08:22:48;;;;;;;15.60;8.17;;;;;1.50;96848.00;;;;8330404;28;20288;-67
2022/03/08 08:26:51;;;;;;;14.53;8.30;;;;;1.70;96853.00;;;;8335566;28;20267;-66
2022/03/08 08:30:54;;;;;;;21.17;9.97;;;;;1.90;96841.00;;;;8341413;28;20233;-65
2022/03/08 08:34:57;;;;;;;17.80;9.50;;;;;2.00;96848.00;;;;8337587;28;20612;-68
2022/03/08 08:39:02;;;;;;;14.30;8.20;;;;;2.20;96855.00;;;;8325516;28;20237;-66
2022/03/08 08:43:06;;;;;;;20.90;8.90;;;;;2.30;96848.00;;;;8322587;28;20294;-70
2022/03/08 08:47:09;;;;;;;13.63;7.03;;;;;2.60;96860.00;;;;8322129;28;20618;-68
2022/03/08 08:51:12;;;;;;;13.17;7.13;;;;;2.90;96856.00;;;;8321862;28;20226;-66
2022/03/08 08:55:17;;;;;;;16.33;7.87;;;;;3.20;96856.00;;;;8318907;28;20227;-68
2022/03/08 08:59:20;;;;;;;13.20;6.83;;;;;3.50;96860.00;;;;8317579;28;20713;-69
2022/03/08 09:03:23;;;;;;;10.67;7.03;;;;;3.70;96857.00;;;;8322582;28;21033;-68
2022/03/08 09:07:26;;;;;;;10.13;6.70;;;;;4.00;96846.00;;;;8329864;28;20379;-66
2022/03/08 09:11:30;;;;;;;12.53;6.80;;;;;4.30;96859.00;;;;8320039;28;20743;-68
2022/03/08 09:15:35;;;;;;;11.67;6.70;;;;;4.40;96849.00;;;;8323495;28;20250;-68
2022/03/08 09:19:39;;;;;;;12.50;6.40;;;;;4.60;96848.00;;;;8320449;28;20321;-69
2022/03/08 09:23:42;;;;;;;13.63;7.10;;;;;4.60;96849.00;;;;8332076;28;20621;-67
2022/03/08 09:27:47;;;;;;;10.53;6.70;;;;;4.70;96845.00;;;;8328010;28;20277;-66
2022/03/08 09:31:52;;;;;;;12.10;5.60;;;;;4.90;96838.00;;;;8328702;28;20686;-66
2022/03/08 09:35:56;;;;;;;7.73;5.07;;;;;5.30;96835.00;;;;8328629;28;20269;-65
2022/03/08 09:39:59;;;;;;;8.10;4.87;;;;;5.70;96840.00;;;;8327301;28;20298;-65
2022/03/08 09:44:04;;;;;;;12.83;5.77;;;;;6.00;96837.00;;;;8329136;28;20659;-65
2022/03/08 09:48:07;;;;;;;15.17;7.13;;;;;6.50;96837.00;;;;8326110;28;20227;-72
2022/03/08 09:52:10;;;;;;;9.90;5.17;;;;;6.90;96852.00;;;;8327316;28;20246;-69
2022/03/08 09:56:13;;;;;;;8.23;5.00;;;;;7.00;96856.00;;;;8324196;28;20290;-73
2022/03/08 10:00:18;;;;;;;8.93;4.50;;;;;7.10;96842.00;;;;8319811;28;20236;-72
2022/03/08 10:04:21;;;;;;;7.23;3.80;;;;;7.30;96850.00;;;;8321041;28;20235;-69
2022/03/08 10:08:44;;;;;;;7.33;4.33;;;;;7.40;96850.00;;;;8316979;28;20242;-71
2022/03/08 10:12:56;;;;;;;15.40;5.67;;;;;7.50;96851.00;;;;8319081;28;20283;-71
2022/03/08 10:17:01;;;;;;;13.90;5.00;;;;;8.00;96855.00;;;;8319288;28;20228;-72
2022/03/08 10:21:04;;;;;;;8.63;4.10;;;;;8.50;96855.00;;;;8317305;28;20316;-72
2022/03/08 10:25:13;;;;;;;14.70;5.77;;;;;9.20;96854.00;;;;8311429;28;20838;-72
2022/03/08 10:29:23;;;;;;;19.80;6.80;;;;;9.90;96854.00;;;;8323818;28;20317;-72
2022/03/08 10:33:37;;;;;;;17.87;6.50;;;;;10.40;96842.00;;;;8320765;28;20803;-72
2022/03/08 10:37:40;;;;;;;8.00;5.03;;;;;10.60;96846.00;;;;8315305;28;20225;-73
2022/03/08 10:41:49;;;;;;;14.47;5.60;;;;;10.80;96835.00;;;;8313501;28;20559;-73
2022/03/08 10:45:52;;;;;;;7.40;3.90;;;;;10.90;96835.00;;;;8325511;28;20217;-72
2022/03/08 10:50:00;;;;;;;6.93;3.70;;;;;11.10;96835.00;;;;8329279;28;20229;-72
2022/03/08 10:54:12;;;;;;;9.93;4.07;;;;;10.50;96837.00;;;;8313201;28;20229;-75
2022/03/08 10:58:16;;;;;;;5.70;3.83;;;;;10.10;96835.00;;;;8318733;28;20229;-73
2022/03/08 11:02:24;;;;;;;5.47;3.50;;;;;9.60;96831.00;;;;8315242;28;20272;-74
2022/03/08 11:06:30;;;;;;;5.90;3.50;;;;;9.20;96834.00;;;;8317523;28;20257;-73
2022/03/08 11:10:33;;;;;;;5.00;3.40;;;;;9.20;96834.00;;;;8315230;28;20217;-73
2022/03/08 11:14:36;;;;;;;5.93;3.90;;;;;9.10;96820.00;;;;8312623;28;20232;-75
2022/03/08 11:18:40;;;;;;;18.83;8.20;;;;;9.20;96821.00;;;;8322477;28;20283;-73
2022/03/08 11:22:47;;;;;;;6.20;3.83;;;;;9.10;96814.00;;;;8322634;28;20225;-76
2022/03/08 11:26:50;;;;;;;5.20;4.03;;;;;8.60;96808.00;;;;8326449;28;20732;-77
2022/03/08 11:30:55;;;;;;;12.10;5.53;;;;;8.50;96817.00;;;;8321256;28;20283;-77
2022/03/08 11:35:04;;;;;;;7.13;4.00;;;;;8.60;96808.00;;;;8319982;28;20286;-76
2022/03/08 11:39:13;;;;;;;10.33;5.00;;;;;8.90;96806.00;;;;8321274;28;20240;-76
2022/03/08 11:43:17;;;;;;;10.47;3.90;;;;;8.90;96802.00;;;;8325511;28;20224;-74
2022/03/08 11:47:20;;;;;;;7.10;3.53;;;;;9.10;96795.00;;;;8331079;28;20228;-75
2022/03/08 11:51:24;;;;;;;5.50;3.67;;;;;9.20;96799.00;;;;8328961;28;20239;-77
2022/03/08 11:55:28;;;;;;;9.03;4.47;;;;;8.90;96782.00;;;;8326788;28;20240;-78
2022/03/08 11:59:31;;;;;;;8.00;3.80;;;;;8.90;96784.00;;;;8311143;28;20785;-78
2022/03/08 12:03:40;;;;;;;6.83;3.93;;;;;8.90;96796.00;;;;8329879;28;20259;-78
2022/03/08 12:07:43;;;;;;;5.30;4.20;;;;;8.80;96795.00;;;;8319376;28;20213;-76
2022/03/08 12:11:51;;;;;;;6.83;3.57;;;;;8.70;96792.00;;;;8324123;28;20264;-76
2022/03/08 12:16:25;;;;;;;8.03;4.10;;;;;8.30;96782.00;;;;8326199;28;20217;-78
2022/03/08 12:20:28;;;;;;;6.40;4.67;;;;;8.40;96783.00;;;;8293604;28;20245;-78
2022/03/08 12:24:41;;;;;;;10.70;4.00;;;;;8.50;96789.00;;;;8324066;28;20283;-78
2022/03/08 12:29:08;;;;;;;18.33;5.13;;;;;8.30;96792.00;;;;8320507;28;20303;-78
2022/03/08 12:33:11;;;;;;;11.17;4.30;;;;;8.40;96790.00;;;;8322502;28;20324;-80
2022/03/08 12:37:17;;;;;;;9.13;4.07;;;;;8.60;96791.00;;;;8324051;28;20374;-79
2022/03/08 12:41:25;;;;;;;6.03;4.20;;;;;8.50;96786.00;;;;8321606;28;20221;-80
2022/03/08 12:45:31;;;;;;;9.37;4.60;;;;;8.50;96782.00;;;;8318916;28;20244;-81
2022/03/08 12:49:34;;;;;;;7.33;4.17;;;;;8.60;96782.00;;;;8324475;28;20213;-76
2022/03/08 12:53:38;;;;;;;7.00;4.17;;;;;8.70;96782.00;;;;8328720;28;20229;-75
2022/03/08 12:57:50;;;;;;;10.67;4.57;;;;;8.40;96780.00;;;;8325276;28;20858;-74
2022/03/08 13:02:08;;;;;;;9.57;3.97;;;;;8.30;96780.00;;;;8316805;28;20299;-79
2022/03/08 13:06:12;;;;;;;10.30;4.13;;;;;8.20;96776.00;;;;8311682;28;20232;-75
2022/03/08 13:10:15;;;;;;;7.63;4.63;;;;;8.20;96774.00;;;;8318828;28;20649;-74
2022/03/08 13:14:20;;;;;;;11.23;5.20;;;;;8.40;96771.00;;;;8311057;28;20303;-76
2022/03/08 13:18:27;;;;;;;7.67;4.50;;;;;8.50;96760.00;;;;8318551;28;20885;-75
2022/03/08 13:22:30;;;;;;;7.17;4.50;;;;;8.70;96779.00;;;;8318804;28;20307;-76
2022/03/08 13:26:53;;;;;;;8.47;4.83;;;;;8.80;96777.00;;;;8317147;28;20298;-75
2022/03/08 13:30:59;;;;;;;8.30;4.83;;;;;8.80;96779.00;;;;8322831;28;20748;-75
2022/03/08 13:35:04;;;;;;;9.30;5.53;;;;;8.80;96772.00;;;;8322979;28;20224;-75
2022/03/08 13:39:08;;;;;;;9.80;5.47;;;;;9.00;96773.00;;;;8317154;28;20752;-75
2022/03/08 13:43:13;;;;;;;9.87;5.50;;;;;9.00;96762.00;;;;8318658;28;20290;-76
2022/03/08 13:47:36;;;;;;;6.90;4.80;;;;;9.10;96774.00;;;;8303288;28;20256;-78
2022/03/08 13:51:41;;;;;;;12.17;6.00;;;;;9.10;96769.00;;;;8317403;28;20224;-79
2022/03/08 13:55:45;;;;;;;8.93;5.27;;;;;9.10;96767.00;;;;8314456;28;20224;-77
2022/03/08 13:59:48;;;;;;;9.73;5.03;;;;;9.10;96773.00;;;;8318134;28;20283;-77
2022/03/08 14:03:52;;;;;;;8.07;4.97;;;;;9.20;96761.00;;;;8315868;28;20286;-77
2022/03/08 14:08:02;;;;;;;7.63;4.70;;;;;9.20;96753.00;;;;8317291;28;20225;-77
2022/03/08 14:12:06;;;;;;;6.83;4.00;;;;;9.20;96753.00;;;;8311359;28;20587;-77
2022/03/08 14:16:10;;;;;;;10.17;4.87;;;;;9.30;96748.00;;;;8318413;28;20644;-77
2022/03/08 14:20:14;;;;;;;6.73;4.70;;;;;9.30;96747.00;;;;8315800;28;20237;-76
2022/03/08 14:24:20;;;;;;;7.97;5.23;;;;;9.20;96743.00;;;;8320915;28;20225;-76
2022/03/08 14:28:44;;;;;;;9.07;4.93;;;;;9.20;96742.00;;;;8317201;28;20295;-76
2022/03/08 14:32:47;;;;;;;26.23;5.70;;;;;9.40;96733.00;;;;8315394;28;20306;-80
2022/03/08 14:36:57;;;;;;;13.67;6.33;;;;;9.50;96732.00;;;;8323920;28;20241;-81
2022/03/08 14:41:01;;;;;;;7.43;4.83;;;;;9.70;96736.00;;;;8316061;28;20233;-74
2022/03/08 14:45:11;;;;;;;8.15;4.85;;;;;9.90;96724.00;;;;8329574;28;20220;-75
2022/03/08 14:49:14;;;;;;;6.73;4.37;;;;;10.00;96725.00;;;;8318910;28;20249;-75
2022/03/08 14:53:17;;;;;;;13.40;5.13;;;;;10.20;96721.00;;;;8315464;28;20306;-76
2022/03/08 14:57:22;;;;;;;9.17;4.70;;;;;10.30;96724.00;;;;8315211;28;20235;-76
2022/03/08 15:01:25;;;;;;;9.13;5.30;;;;;10.40;96726.00;;;;8316514;28;20282;-76
2022/03/08 15:05:28;;;;;;;9.43;4.73;;;;;10.40;96720.00;;;;8315808;28;20236;-76
2022/03/08 15:09:31;;;;;;;9.33;4.93;;;;;10.40;96714.00;;;;8316176;28;20228;-77
2022/03/08 15:13:35;;;;;;;11.07;5.50;;;;;10.40;96714.00;;;;8315242;28;20303;-78
2022/03/08 15:17:39;;;;;;;7.17;4.27;;;;;10.30;96707.00;;;;8315361;28;20229;-77
2022/03/08 15:21:43;;;;;;;6.73;4.90;;;;;10.30;96706.00;;;;8317860;28;20241;-76
2022/03/08 15:25:47;;;;;;;7.93;5.07;;;;;10.30;96716.00;;;;8314452;28;20232;-76
2022/03/08 15:29:51;;;;;;;8.20;4.87;;;;;10.30;96711.00;;;;8312239;28;20225;-77
2022/03/08 15:33:54;;;;;;;9.30;5.27;;;;;10.10;96721.00;;;;8312112;28;20237;-77
2022/03/08 15:37:57;;;;;;;8.60;5.60;;;;;10.00;96723.00;;;;8313113;28;20651;-77
2022/03/08 15:42:00;;;;;;;9.37;5.13;;;;;9.80;96719.00;;;;8313484;28;20322;-81
2022/03/08 15:46:04;;;;;;;7.83;5.00;;;;;9.70;96718.00;;;;8317903;28;20283;-77
2022/03/08 15:50:10;;;;;;;10.93;5.90;;;;;9.70;96719.00;;;;8320742;28;20221;-76
2022/03/08 15:54:13;;;;;;;13.67;6.10;;;;;9.70;96719.00;;;;8323189;28;20243;-76
2022/03/08 15:58:16;;;;;;;9.23;5.90;;;;;9.60;96722.00;;;;8320071;28;20232;-76
2022/03/08 16:02:23;;;;;;;9.97;4.93;;;;;9.40;96724.00;;;;8313153;28;20406;-76
2022/03/08 16:06:26;;;;;;;13.33;5.27;;;;;9.30;96731.00;;;;8312018;28;20237;-75
2022/03/08 16:10:29;;;;;;;7.97;5.10;;;;;9.10;96736.00;;;;8321430;28;20259;-74
2022/03/08 16:14:32;;;;;;;12.03;5.10;;;;;8.90;96730.00;;;;8320879;28;20302;-76
2022/03/08 16:18:37;;;;;;;18.07;14.57;;;;;8.60;96726.00;;;;8312270;28;20226;-76
2022/03/08 16:22:40;;;;;;;14.40;7.97;;;;;8.50;96724.00;;;;8320636;28;20652;-76
2022/03/08 16:26:44;;;;;;;618.40;400.47;;;;;8.30;96729.00;;;;8324417;28;20225;-76
2022/03/08 16:30:47;;;;;;;83.63;57.87;;;;;8.20;96716.00;;;;8324971;28;20330;-76
2022/03/08 16:34:53;;;;;;;14.87;12.03;;;;;8.10;96717.00;;;;8321454;28;20282;-76
2022/03/08 16:38:56;;;;;;;12.57;5.77;;;;;8.00;96711.00;;;;8327506;28;20348;-76
2022/03/08 16:42:59;;;;;;;19.07;6.37;;;;;7.80;96715.00;;;;8327200;28;20598;-76
2022/03/08 16:47:02;;;;;;;19.00;5.80;;;;;7.50;96705.00;;;;8322828;28;20271;-76
2022/03/08 16:51:06;;;;;;;11.37;5.43;;;;;7.20;96716.00;;;;8321384;28;20611;-76
2022/03/08 16:55:12;;;;;;;20.17;6.47;;;;;6.80;96718.00;;;;8319938;28;20633;-76
2022/03/08 16:59:15;;;;;;;9.27;5.30;;;;;6.30;96715.00;;;;8324974;28;20219;-77
2022/03/08 17:03:18;;;;;;;11.27;5.37;;;;;5.70;96714.00;;;;8311828;28;20236;-75
2022/03/08 17:07:22;;;;;;;9.93;5.30;;;;;5.20;96726.00;;;;8314829;28;20239;-75
2022/03/08 17:11:26;;;;;;;10.03;6.00;;;;;4.70;96724.00;;;;8323796;28;20235;-75
2022/03/08 17:15:29;;;;;;;9.97;5.43;;;;;4.30;96721.00;;;;8317943;28;20227;-77
2022/03/08 17:19:32;;;;;;;14.43;6.03;;;;;3.80;96718.00;;;;8322368;28;20232;-76
2022/03/08 17:23:36;;;;;;;10.53;6.00;;;;;3.50;96722.00;;;;8318105;28;20229;-76
2022/03/08 17:27:39;;;;;;;16.23;6.87;;;;;3.20;96716.00;;;;8318532;28;20226;-76
2022/03/08 17:31:43;;;;;;;18.57;7.70;;;;;3.00;96727.00;;;;8323407;28;20228;-76
2022/03/08 17:35:46;;;;;;;16.20;7.50;;;;;2.70;96740.00;;;;8325137;28;20228;-75
2022/03/08 17:39:51;;;;;;;16.60;8.83;;;;;2.60;96750.00;;;;8327798;28;20278;-75
2022/03/08 17:43:56;;;;;;;16.20;7.87;;;;;2.50;96753.00;;;;8323509;28;21472;-74
2022/03/08 17:47:59;;;;;;;20.23;7.80;;;;;2.50;96746.00;;;;8329137;28;20212;-74
2022/03/08 17:52:05;;;;;;;21.23;9.07;;;;;2.50;96753.00;;;;8323635;28;20317;-73
2022/03/08 17:56:09;;;;;;;30.70;9.43;;;;;2.40;96756.00;;;;8332857;28;20268;-73
2022/03/08 18:00:13;;;;;;;17.73;7.70;;;;;2.20;96753.00;;;;8328422;28;20849;-73
2022/03/08 18:04:37;;;;;;;35.50;10.67;;;;;1.90;96757.00;;;;8325238;28;20248;-73
2022/03/08 18:08:40;;;;;;;18.10;8.20;;;;;1.70;96760.00;;;;8323984;28;20619;-73
2022/03/08 18:12:44;;;;;;;18.40;8.00;;;;;1.60;96761.00;;;;8318205;28;20331;-73
2022/03/08 18:16:47;;;;;;;19.63;8.53;;;;;1.40;96770.00;;;;8313476;28;20225;-73
2022/03/08 18:20:51;;;;;;;11.63;6.93;;;;;1.40;96759.00;;;;8319929;28;20226;-73
2022/03/08 18:24:54;;;;;;;17.57;8.37;;;;;1.30;96769.00;;;;8319744;28;20240;-74
2022/03/08 18:28:58;;;;;;;13.93;6.67;;;;;1.30;96768.00;;;;8320848;28;20669;-73
2022/03/08 18:33:02;;;;;;;12.83;6.30;;;;;1.20;96775.00;;;;8314404;28;20233;-72
2022/03/08 18:37:05;;;;;;;16.20;7.30;;;;;1.30;96783.00;;;;8321087;28;20326;-72
2022/03/08 18:41:09;;;;;;;14.13;7.20;;;;;1.40;96775.00;;;;8310306;28;20233;-72
2022/03/08 18:45:17;;;;;;;17.17;7.80;;;;;1.30;96772.00;;;;8312341;28;20328;-70
2022/03/08 18:49:20;;;;;;;20.23;7.80;;;;;1.20;96785.00;;;;8314230;28;21337;-71
2022/03/08 18:53:23;;;;;;;22.10;9.53;;;;;0.90;96784.00;;;;8315793;28;20723;-70
2022/03/08 18:57:26;;;;;;;29.13;10.47;;;;;1.10;96790.00;;;;8315893;28;21018;-70
2022/03/08 19:01:31;;;;;;;22.10;9.47;;;;;1.30;96780.00;;;;8318045;28;20225;-71
2022/03/08 19:05:35;;;;;;;21.83;8.73;;;;;1.30;96776.00;;;;8321434;28;20622;-71
2022/03/08 19:09:38;;;;;;;15.33;7.87;;;;;1.30;96781.00;;;;8315214;28;20228;-70
2022/03/08 19:13:41;;;;;;;14.47;7.53;;;;;1.20;96782.00;;;;8319885;28;20229;-71
2022/03/08 19:17:46;;;;;;;14.10;6.97;;;;;1.20;96780.00;;;;8319324;28;20304;-71
2022/03/08 19:21:49;;;;;;;9.73;6.07;;;;;1.40;96787.00;;;;8316353;28;20283;-74
2022/03/08 19:25:54;;;;;;;14.97;6.90;;;;;1.50;96776.00;;;;8312925;28;20233;-73
2022/03/08 19:29:59;;;;;;;11.07;6.20;;;;;1.60;96787.00;;;;8317144;28;20729;-73
2022/03/08 19:34:04;;;;;;;15.17;7.10;;;;;1.60;96787.00;;;;8319777;28;20224;-72
2022/03/08 19:38:07;;;;;;;87.63;24.03;;;;;1.40;96803.00;;;;8324654;28;20701;-71
2022/03/08 19:42:10;;;;;;;52.33;16.70;;;;;1.30;96795.00;;;;8319541;28;20291;-71
2022/03/08 19:46:13;;;;;;;40.13;13.40;;;;;1.10;96785.00;;;;8313038;28;20690;-72
2022/03/08 19:50:18;;;;;;;25.47;9.33;;;;;1.00;96788.00;;;;8319414;28;20232;-72
2022/03/08 19:54:22;;;;;;;19.87;8.57;;;;;0.80;96792.00;;;;8321084;28;20258;-72
2022/03/08 19:58:27;;;;;;;18.20;8.83;;;;;0.60;96796.00;;;;8323725;28;20869;-73
2022/03/08 20:02:31;;;;;;;18.87;8.77;;;;;0.50;96805.00;;;;8321845;28;20228;-73
2022/03/08 20:06:38;;;;;;;18.53;8.40;;;;;0.40;96787.00;;;;8319368;28;20244;-73
2022/03/08 20:10:43;;;;;;;17.07;7.70;;;;;0.30;96788.00;;;;8315704;28;20286;-71
2022/03/08 20:14:47;;;;;;;17.53;7.33;;;;;0.20;96789.00;;;;8316102;28;20235;-71
2022/03/08 20:18:52;;;;;;;15.27;7.40;;;;;0.20;96788.00;;;;8319233;28;20221;-71
2022/03/08 20:22:58;;;;;;;34.00;15.43;;;;;0.30;96805.00;;;;8315441;28;20229;-71